Time;durP1;ratioP1;P1;durP2;ratioP2;P2;SDS_P1;SDS_P2;PMS_P1;PMS_P2;Temp;Humidity;BMP_temperature;BMP_pressure;BME280_temperature;BME280_humidity;BME280_pressure;Samples;Min_cycle;Max_cycle;Signal;HPM_P1;HPM_P2
2022/04/15 00:00:26;;;;;;;15.83;14.23;;;;;;;;;;5014891;28;20464;-87
2022/04/15 00:02:58;;;;;;;16.20;13.80;;;;;;;;;;5020122;28;20403;-87
2022/04/15 00:05:34;;;;;;;21.80;15.37;;;;;;;;;;5021241;28;20458;-87
2022/04/15 00:08:10;;;;;;;17.40;15.73;;;;;;;;;;5020656;28;20856;-86
2022/04/15 00:10:45;;;;;;;18.20;14.50;;;;;;;;;;5019607;28;20406;-87
2022/04/15 00:13:12;;;;;;;16.77;14.87;;;;;;;;;;5020750;28;20399;-87
2022/04/15 00:15:44;;;;;;;21.90;16.20;;;;;;;;;;5022013;28;20443;-87
2022/04/15 00:18:14;;;;;;;21.87;18.67;;;;;;;;;;5022339;28;20448;-87
2022/04/15 00:20:43;;;;;;;20.10;17.90;;;;;;;;;;5024031;28;20407;-87
2022/04/15 00:23:18;;;;;;;20.70;18.60;;;;;;;;;;5022079;28;20412;-87
2022/04/15 00:25:44;;;;;;;22.00;18.43;;;;;;;;;;5022296;28;20504;-88
2022/04/15 00:28:12;;;;;;;22.53;19.77;;;;;;;;;;5021885;28;20412;-87
2022/04/15 00:30:58;;;;;;;27.60;22.57;;;;;;;;;;5023421;28;20461;-88
2022/04/15 00:33:28;;;;;;;26.60;23.30;;;;;;;;;;5020803;28;20812;-88
2022/04/15 00:36:00;;;;;;;30.67;20.80;;;;;;;;;;5022411;28;20477;-87
2022/04/15 00:38:29;;;;;;;31.20;23.20;;;;;;;;;;5022775;28;20387;-88
2022/04/15 00:40:58;;;;;;;26.60;23.60;;;;;;;;;;5021779;28;20450;-88
2022/04/15 00:43:30;;;;;;;25.13;22.60;;;;;;;;;;5022148;28;20403;-88
2022/04/15 00:46:07;;;;;;;25.80;23.17;;;;;;;;;;5019906;28;20458;-88
2022/04/15 00:48:41;;;;;;;34.47;25.70;;;;;;;;;;5023608;28;20391;-87
2022/04/15 00:51:08;;;;;;;30.53;25.63;;;;;;;;;;5024607;28;20399;-87
2022/04/15 00:53:36;;;;;;;37.97;28.37;;;;;;;;;;5026290;28;20475;-87
2022/04/15 00:56:11;;;;;;;33.10;28.90;;;;;;;;;;5024816;28;20431;-87
2022/04/15 00:58:41;;;;;;;33.73;28.77;;;;;;;;;;5025420;28;20786;-87
2022/04/15 01:01:07;;;;;;;43.23;29.90;;;;;;;;;;5024981;28;20415;-87
2022/04/15 01:03:33;;;;;;;59.93;34.60;;;;;;;;;;5026155;28;20427;-88
2022/04/15 01:06:00;;;;;;;44.53;33.03;;;;;;;;;;5024660;28;20498;-86
2022/04/15 01:08:32;;;;;;;39.17;32.97;;;;;;;;;;5024905;28;20506;-86
2022/04/15 01:11:01;;;;;;;37.83;31.67;;;;;;;;;;5026134;28;20400;-86
2022/04/15 01:13:30;;;;;;;44.93;33.97;;;;;;;;;;5026147;28;20403;-87
2022/04/15 01:15:59;;;;;;;39.13;34.00;;;;;;;;;;5025994;28;20447;-87
2022/04/15 01:18:26;;;;;;;42.67;33.53;;;;;;;;;;5025935;28;20407;-88
2022/04/15 01:20:56;;;;;;;39.90;34.20;;;;;;;;;;5026949;28;20411;-86
2022/04/15 01:23:22;;;;;;;38.30;34.07;;;;;;;;;;5039224;28;20423;-85
2022/04/15 01:25:57;;;;;;;41.30;35.60;;;;;;;;;;5050096;28;20527;-86
2022/04/15 01:31:22;;;;;;;45.83;35.87;;;;;;;;;;5056269;28;20415;-84
2022/04/15 01:33:48;;;;;;;40.47;34.77;;;;;;;;;;5058467;28;20402;-84
2022/04/15 01:36:15;;;;;;;44.63;38.10;;;;;;;;;;5058832;28;20399;-85
2022/04/15 01:38:41;;;;;;;45.40;37.13;;;;;;;;;;5058409;28;20478;-85
2022/04/15 01:41:12;;;;;;;45.70;35.80;;;;;;;;;;5051546;28;20469;-87
2022/04/15 01:43:38;;;;;;;44.00;36.27;;;;;;;;;;5044150;28;20406;-85
2022/04/15 01:46:04;;;;;;;46.67;36.33;;;;;;;;;;5044506;28;20599;-87
2022/04/15 01:48:32;;;;;;;44.60;36.57;;;;;;;;;;5044234;28;20402;-86
2022/04/15 01:50:58;;;;;;;41.57;35.23;;;;;;;;;;5044189;28;20403;-86
2022/04/15 01:53:24;;;;;;;45.57;35.37;;;;;;;;;;5034688;28;20460;-86
2022/04/15 01:55:51;;;;;;;39.50;32.57;;;;;;;;;;5052004;28;20464;-87
2022/04/15 01:58:19;;;;;;;39.20;32.50;;;;;;;;;;5045476;28;20782;-87
2022/04/15 02:00:45;;;;;;;42.47;34.87;;;;;;;;;;5044072;28;20415;-86
2022/04/15 02:03:11;;;;;;;39.67;34.40;;;;;;;;;;5043459;28;20498;-86
2022/04/15 02:05:40;;;;;;;36.80;32.10;;;;;;;;;;5043804;28;20462;-86
2022/04/15 02:08:06;;;;;;;37.03;31.03;;;;;;;;;;5043978;28;20891;-86
2022/04/15 02:10:42;;;;;;;34.27;30.47;;;;;;;;;;5044020;28;20431;-86
2022/04/15 02:13:11;;;;;;;34.77;31.00;;;;;;;;;;5043447;28;20909;-86
2022/04/15 02:15:42;;;;;;;40.90;32.57;;;;;;;;;;5043179;28;20481;-86
2022/04/15 02:18:13;;;;;;;32.37;28.87;;;;;;;;;;5042830;28;20398;-86
2022/04/15 02:20:39;;;;;;;40.57;29.90;;;;;;;;;;5043634;28;20410;-86
2022/04/15 02:23:08;;;;;;;41.17;30.77;;;;;;;;;;5024926;28;20414;-88
2022/04/15 02:25:40;;;;;;;38.20;31.37;;;;;;;;;;5042780;28;20458;-87
2022/04/15 02:28:10;;;;;;;37.47;31.77;;;;;;;;;;5048045;28;20417;-86
2022/04/15 02:30:41;;;;;;;37.00;30.40;;;;;;;;;;5059359;28;20383;-85
2022/04/15 02:33:07;;;;;;;33.17;29.27;;;;;;;;;;5037266;28;20379;-84
2022/04/15 02:35:36;;;;;;;35.47;30.07;;;;;;;;;;5036270;28;20425;-85
2022/04/15 02:38:08;;;;;;;30.67;26.40;;;;;;;;;;5037116;28;20513;-84
2022/04/15 02:40:40;;;;;;;27.27;24.37;;;;;;;;;;5045598;28;20425;-85
2022/04/15 02:43:08;;;;;;;29.00;25.00;;;;;;;;;;5041484;28;20445;-86
2022/04/15 02:45:37;;;;;;;34.50;25.83;;;;;;;;;;5040394;28;20462;-87
2022/04/15 02:48:03;;;;;;;35.50;28.70;;;;;;;;;;5043323;28;20406;-86
2022/04/15 02:50:36;;;;;;;31.97;25.67;;;;;;;;;;5023636;28;21013;-86
2022/04/15 02:53:02;;;;;;;33.90;25.90;;;;;;;;;;5024107;28;20402;-86
2022/04/15 02:55:34;;;;;;;33.57;26.07;;;;;;;;;;5039957;28;20795;-87
2022/04/15 02:58:06;;;;;;;28.83;25.30;;;;;;;;;;5029307;28;20418;-87
2022/04/15 03:00:38;;;;;;;35.77;27.50;;;;;;;;;;5039261;28;20539;-87
2022/04/15 03:03:11;;;;;;;32.23;21.70;;;;;;;;;;5023473;28;20434;-86
2022/04/15 03:05:41;;;;;;;25.17;22.47;;;;;;;;;;5020500;28;20482;-86
2022/04/15 03:08:09;;;;;;;28.50;24.30;;;;;;;;;;5003361;28;20412;-86
2022/04/15 03:10:40;;;;;;;25.77;23.07;;;;;;;;;;5020197;28;20438;-86
2022/04/15 03:13:06;;;;;;;30.40;23.10;;;;;;;;;;5002401;28;20410;-86
2022/04/15 03:15:32;;;;;;;27.00;23.30;;;;;;;;;;5002332;28;20447;-86
2022/04/15 03:17:58;;;;;;;25.63;22.70;;;;;;;;;;5016929;28;20415;-84
2022/04/15 03:20:24;;;;;;;27.70;22.93;;;;;;;;;;5014787;28;20423;-84
2022/04/15 03:22:50;;;;;;;26.97;22.77;;;;;;;;;;5015556;28;20412;-85
2022/04/15 03:25:18;;;;;;;28.57;25.47;;;;;;;;;;5014837;28;20455;-85
2022/04/15 03:27:47;;;;;;;33.27;25.37;;;;;;;;;;4999606;28;20438;-86
2022/04/15 03:30:19;;;;;;;33.07;25.97;;;;;;;;;;5015944;28;20422;-85
2022/04/15 03:32:46;;;;;;;27.27;23.83;;;;;;;;;;5001503;28;20867;-86
2022/04/15 03:35:12;;;;;;;28.53;25.23;;;;;;;;;;5018904;28;20514;-85
2022/04/15 03:37:41;;;;;;;36.33;27.70;;;;;;;;;;5001921;28;20853;-86
2022/04/15 03:40:11;;;;;;;28.60;24.73;;;;;;;;;;5028841;28;20411;-85
2022/04/15 03:42:57;;;;;;;32.70;27.70;;;;;;;;;;5029998;28;20467;-85
2022/04/15 03:45:30;;;;;;;34.83;26.60;;;;;;;;;;5013341;28;20482;-85
2022/04/15 03:47:59;;;;;;;33.80;27.50;;;;;;;;;;5043130;28;20426;-85
2022/04/15 03:50:28;;;;;;;33.60;30.00;;;;;;;;;;5049912;28;20410;-85
2022/04/15 03:52:58;;;;;;;34.90;29.57;;;;;;;;;;5032446;28;20422;-85
2022/04/15 03:55:39;;;;;;;35.83;30.83;;;;;;;;;;5030007;28;20469;-86
2022/04/15 03:58:15;;;;;;;;;;;;;;;;;;;;;
2022/04/15 04:00:43;;;;;;;34.87;31.13;;;;;;;;;;5039322;28;20849;-86
2022/04/15 04:03:14;;;;;;;39.57;31.60;;;;;;;;;;5005715;28;20426;-86
2022/04/15 04:05:43;;;;;;;38.03;30.93;;;;;;;;;;5040096;28;20457;-86
2022/04/15 04:08:12;;;;;;;39.83;30.60;;;;;;;;;;5040381;28;20407;-85
2022/04/15 04:10:38;;;;;;;41.17;33.23;;;;;;;;;;5039613;28;20422;-86
2022/04/15 04:13:04;;;;;;;37.50;32.43;;;;;;;;;;5039327;28;20438;-86
2022/04/15 04:15:31;;;;;;;46.23;33.87;;;;;;;;;;5039648;28;20438;-86
2022/04/15 04:18:00;;;;;;;37.90;32.90;;;;;;;;;;5040032;28;20928;-86
2022/04/15 04:20:27;;;;;;;43.20;36.07;;;;;;;;;;5021498;28;20970;-86
2022/04/15 04:22:53;;;;;;;40.20;34.50;;;;;;;;;;5040445;28;20537;-85
2022/04/15 04:25:19;;;;;;;43.63;36.97;;;;;;;;;;5041349;28;20504;-86
2022/04/15 04:27:46;;;;;;;45.47;37.83;;;;;;;;;;5043424;28;20894;-86
2022/04/15 04:30:13;;;;;;;48.53;38.33;;;;;;;;;;5044048;28;20418;-86
2022/04/15 04:32:39;;;;;;;44.10;37.50;;;;;;;;;;5044312;28;20398;-85
2022/04/15 04:35:11;;;;;;;49.47;40.00;;;;;;;;;;5043578;28;20430;-86
2022/04/15 04:37:39;;;;;;;43.20;36.53;;;;;;;;;;5043986;28;20421;-86
2022/04/15 04:40:06;;;;;;;46.10;36.90;;;;;;;;;;5043631;28;20909;-86
2022/04/15 04:42:32;;;;;;;44.57;37.57;;;;;;;;;;5043064;28;20413;-86
2022/04/15 04:44:58;;;;;;;45.47;36.13;;;;;;;;;;5025519;28;20430;-86
2022/04/15 04:47:34;;;;;;;44.40;36.57;;;;;;;;;;5026090;28;20410;-86
2022/04/15 04:50:01;;;;;;;45.97;35.40;;;;;;;;;;5043363;28;20389;-86
2022/04/15 04:52:27;;;;;;;40.23;35.50;;;;;;;;;;5043691;28;20390;-86
2022/04/15 04:54:56;;;;;;;45.87;35.27;;;;;;;;;;5027738;28;20429;-84
2022/04/15 04:57:22;;;;;;;44.27;35.20;;;;;;;;;;5058068;28;20414;-82
2022/04/15 04:59:48;;;;;;;44.10;35.43;;;;;;;;;;5047383;28;20417;-86
2022/04/15 05:02:14;;;;;;;43.53;36.73;;;;;;;;;;5043019;28;20441;-86
2022/04/15 05:04:46;;;;;;;48.23;36.57;;;;;;;;;;5024951;28;20441;-86
2022/04/15 05:07:14;;;;;;;42.33;37.47;;;;;;;;;;5042539;28;20454;-85
2022/04/15 05:09:41;;;;;;;48.17;37.40;;;;;;;;;;5038028;28;20403;-85
2022/04/15 05:12:08;;;;;;;42.57;35.63;;;;;;;;;;5020715;28;20835;-84
2022/04/15 05:14:34;;;;;;;48.57;38.47;;;;;;;;;;5069031;22;20484;-78
2022/04/15 05:17:00;;;;;;;40.20;34.60;;;;;;;;;;5058742;28;20425;-77
2022/04/15 05:19:26;;;;;;;41.63;34.70;;;;;;;;;;5062009;28;20398;-78
2022/04/15 05:21:53;;;;;;;42.60;35.20;;;;;;;;;;5062049;28;20485;-78
2022/04/15 05:24:19;;;;;;;38.90;34.70;;;;;;;;;;5043388;28;20410;-78
2022/04/15 05:26:45;;;;;;;40.07;34.60;;;;;;;;;;5061281;28;20433;-78
2022/04/15 05:29:11;;;;;;;41.40;36.50;;;;;;;;;;5062018;28;20774;-78
2022/04/15 05:31:37;;;;;;;39.57;34.70;;;;;;;;;;5061618;28;20985;-77
2022/04/15 05:34:03;;;;;;;40.27;34.67;;;;;;;;;;5057087;28;20393;-78
2022/04/15 05:36:30;;;;;;;39.67;32.57;;;;;;;;;;5057406;28;20406;-78
2022/04/15 05:38:56;;;;;;;36.47;32.67;;;;;;;;;;5057615;28;20445;-78
2022/04/15 05:41:22;;;;;;;36.97;32.77;;;;;;;;;;5058330;28;20416;-78
2022/04/15 05:43:48;;;;;;;40.17;32.90;;;;;;;;;;5058502;28;20409;-78
2022/04/15 05:46:15;;;;;;;39.73;32.47;;;;;;;;;;5058917;28;20790;-79
2022/04/15 05:48:41;;;;;;;36.57;32.67;;;;;;;;;;5059361;28;20409;-79
2022/04/15 05:51:07;;;;;;;37.93;31.33;;;;;;;;;;5059329;28;20761;-77
2022/04/15 05:53:33;;;;;;;41.83;33.80;;;;;;;;;;5060196;28;20401;-79
2022/04/15 05:56:00;;;;;;;37.43;32.40;;;;;;;;;;5059850;28;20437;-79
2022/04/15 05:58:26;;;;;;;39.40;31.23;;;;;;;;;;5060736;28;20420;-79
2022/04/15 06:00:52;;;;;;;38.33;30.40;;;;;;;;;;5060425;28;20412;-78
2022/04/15 06:03:22;;;;;;;36.63;32.23;;;;;;;;;;5060349;28;20405;-79
2022/04/15 06:05:49;;;;;;;37.53;31.50;;;;;;;;;;5060545;28;20441;-79
2022/04/15 06:08:15;;;;;;;37.00;30.97;;;;;;;;;;5042584;28;20414;-79
2022/04/15 06:10:41;;;;;;;35.63;31.33;;;;;;;;;;5060976;28;20406;-78
2022/04/15 06:13:13;;;;;;;31.90;28.60;;;;;;;;;;5060163;28;20405;-79
2022/04/15 06:15:41;;;;;;;33.40;29.37;;;;;;;;;;5042760;28;20504;-79
2022/04/15 06:18:08;;;;;;;34.27;29.83;;;;;;;;;;5060674;28;20412;-79
2022/04/15 06:20:34;;;;;;;35.73;30.33;;;;;;;;;;5060412;28;20416;-79
2022/04/15 06:23:01;;;;;;;33.30;29.10;;;;;;;;;;5061028;28;20406;-79
2022/04/15 06:25:27;;;;;;;35.97;31.03;;;;;;;;;;5060737;28;20461;-79
2022/04/15 06:27:54;;;;;;;34.73;27.97;;;;;;;;;;5061052;28;20463;-79
2022/04/15 06:30:21;;;;;;;34.60;28.30;;;;;;;;;;5061020;28;20473;-79
2022/04/15 06:32:48;;;;;;;29.67;25.70;;;;;;;;;;5060318;28;20414;-79
2022/04/15 06:35:14;;;;;;;29.97;26.03;;;;;;;;;;5060937;28;20990;-79
2022/04/15 06:37:40;;;;;;;34.60;26.20;;;;;;;;;;5059384;28;20464;-79
2022/04/15 06:40:06;;;;;;;31.90;27.00;;;;;;;;;;5059569;28;20412;-79
2022/04/15 06:42:32;;;;;;;30.17;26.43;;;;;;;;;;5041841;28;20906;-79
2022/04/15 06:44:59;;;;;;;31.30;26.23;;;;;;;;;;5042158;28;20801;-79
2022/04/15 06:47:25;;;;;;;28.23;25.03;;;;;;;;;;5059168;28;20466;-79
2022/04/15 06:49:51;;;;;;;28.27;24.30;;;;;;;;;;5059707;28;20409;-79
2022/04/15 06:52:20;;;;;;;33.83;26.37;;;;;;;;;;5059773;28;20477;-79
2022/04/15 06:54:46;;;;;;;26.17;23.37;;;;;;;;;;5059751;28;20785;-79
2022/04/15 06:57:13;;;;;;;26.13;23.33;;;;;;;;;;5057610;28;20433;-77
2022/04/15 06:59:39;;;;;;;31.03;23.83;;;;;;;;;;5060616;28;20412;-79
2022/04/15 07:02:05;;;;;;;26.43;23.60;;;;;;;;;;5060719;28;20436;-79
2022/04/15 07:04:32;;;;;;;31.53;23.67;;;;;;;;;;5059620;28;20489;-79
2022/04/15 07:06:58;;;;;;;29.37;23.17;;;;;;;;;;5060256;28;20878;-79
2022/04/15 07:09:24;;;;;;;26.83;22.80;;;;;;;;;;5060054;28;20477;-79
2022/04/15 07:11:51;;;;;;;26.83;23.83;;;;;;;;;;5060259;28;20406;-79
2022/04/15 07:14:17;;;;;;;32.63;23.70;;;;;;;;;;5060694;28;20398;-80
2022/04/15 07:16:43;;;;;;;24.67;22.00;;;;;;;;;;5060288;28;20389;-79
2022/04/15 07:19:09;;;;;;;26.70;23.80;;;;;;;;;;5056000;28;20410;-80
2022/04/15 07:21:36;;;;;;;27.37;22.50;;;;;;;;;;5039181;28;20450;-79
2022/04/15 07:24:03;;;;;;;30.07;23.27;;;;;;;;;;5039754;28;20454;-80
2022/04/15 07:26:29;;;;;;;25.10;21.33;;;;;;;;;;5039543;28;20450;-79
2022/04/15 07:28:55;;;;;;;23.93;21.33;;;;;;;;;;5023304;28;20434;-81
2022/04/15 07:31:21;;;;;;;21.97;19.63;;;;;;;;;;5040912;28;20423;-80
2022/04/15 07:33:47;;;;;;;23.43;20.20;;;;;;;;;;5036463;28;20419;-81
2022/04/15 07:38:58;;;;;;;23.07;20.07;;;;;;;;;;5044428;28;20413;-80
2022/04/15 07:41:24;;;;;;;24.23;21.03;;;;;;;;;;5043191;28;20419;-80
2022/04/15 07:43:50;;;;;;;28.00;23.73;;;;;;;;;;5030048;28;20407;-80
2022/04/15 07:46:16;;;;;;;23.60;20.43;;;;;;;;;;5020642;28;20808;-81
2022/04/15 07:48:43;;;;;;;26.93;24.10;;;;;;;;;;5037356;28;20489;-81
2022/04/15 07:51:09;;;;;;;26.53;22.37;;;;;;;;;;5040967;28;20485;-80
2022/04/15 07:53:35;;;;;;;27.40;24.40;;;;;;;;;;5041227;28;20505;-81
2022/04/15 07:56:01;;;;;;;27.50;23.63;;;;;;;;;;5041539;28;20433;-81
2022/04/15 07:58:28;;;;;;;28.73;25.73;;;;;;;;;;5039604;28;20422;-81
2022/04/15 08:00:54;;;;;;;28.17;25.20;;;;;;;;;;5044038;28;20411;-81
2022/04/15 08:03:21;;;;;;;27.97;25.03;;;;;;;;;;5026226;28;20418;-81
2022/04/15 08:05:47;;;;;;;29.43;26.33;;;;;;;;;;5043390;28;20524;-81
2022/04/15 08:08:13;;;;;;;31.00;24.70;;;;;;;;;;5044525;28;20420;-81
2022/04/15 08:10:40;;;;;;;27.63;24.65;;;;;;;;;;5045012;28;20913;-81
2022/04/15 08:13:07;;;;;;;30.23;26.57;;;;;;;;;;5046125;28;20186;-80
2022/04/15 08:15:33;;;;;;;29.07;24.13;;;;;;;;;;5041597;28;20481;-81
2022/04/15 08:17:59;;;;;;;27.40;24.43;;;;;;;;;;5023730;28;20407;-81
2022/04/15 08:20:25;;;;;;;32.37;25.83;;;;;;;;;;5015039;28;20953;-79
2022/04/15 08:22:51;;;;;;;27.73;24.83;;;;;;;;;;5041849;28;20497;-80
2022/04/15 08:25:17;;;;;;;25.67;23.07;;;;;;;;;;5042142;28;20539;-80
2022/04/15 08:27:43;;;;;;;26.20;23.50;;;;;;;;;;5043003;28;20402;-81
2022/04/15 08:30:10;;;;;;;26.27;23.43;;;;;;;;;;5043930;28;20449;-81
2022/04/15 08:32:36;;;;;;;24.20;21.80;;;;;;;;;;5047122;28;20411;-80
2022/04/15 08:35:06;;;;;;;24.27;21.87;;;;;;;;;;5040683;28;20477;-80
2022/04/15 08:37:33;;;;;;;24.63;21.80;;;;;;;;;;5041596;28;20791;-79
2022/04/15 08:39:59;;;;;;;24.00;21.00;;;;;;;;;;5039597;28;20476;-81
2022/04/15 08:42:25;;;;;;;24.80;21.80;;;;;;;;;;5040102;28;20402;-80
2022/04/15 08:44:51;;;;;;;25.00;22.30;;;;;;;;;;5029875;28;20458;-81
2022/04/15 08:47:18;;;;;;;24.60;22.00;;;;;;;;;;5022093;28;20465;-81
2022/04/15 08:49:45;;;;;;;27.80;22.47;;;;;;;;;;5022715;28;20407;-82
2022/04/15 08:52:12;;;;;;;21.40;18.47;;;;;;;;;;5028185;28;20428;-81
2022/04/15 08:54:39;;;;;;;20.13;16.63;;;;;;;;;;5041392;28;20426;-81
2022/04/15 08:57:05;;;;;;;21.67;18.48;;;;;;;;;;5043015;28;20423;-81
2022/04/15 08:59:31;;;;;;;18.23;16.13;;;;;;;;;;5045792;28;20198;-81
2022/04/15 09:01:57;;;;;;;21.00;18.90;;;;;;;;;;5045926;28;20484;-82
2022/04/15 09:04:24;;;;;;;19.83;17.73;;;;;;;;;;5047614;28;20430;-82
2022/04/15 09:07:00;;;;;;;19.80;16.30;;;;;;;;;;5050059;28;20446;-80
2022/04/15 09:09:30;;;;;;;20.70;18.30;;;;;;;;;;5052002;28;20422;-81
2022/04/15 09:11:59;;;;;;;19.47;15.00;;;;;;;;;;5049977;28;20402;-80
2022/04/15 09:14:26;;;;;;;17.33;15.63;;;;;;;;;;5049645;28;20434;-81
2022/04/15 09:16:53;;;;;;;19.77;17.03;;;;;;;;;;5048782;28;20411;-81
2022/04/15 09:19:20;;;;;;;20.67;16.57;;;;;;;;;;5048465;28;20403;-81
2022/04/15 09:21:56;;;;;;;20.00;18.07;;;;;;;;;;5050039;28;20432;-82
2022/04/15 09:24:36;;;;;;;18.60;16.57;;;;;;;;;;5014933;28;20443;-81
2022/04/15 09:27:06;;;;;;;17.13;15.43;;;;;;;;;;5023369;28;20454;-81
2022/04/15 09:29:33;;;;;;;18.87;17.07;;;;;;;;;;5045988;28;20440;-81
2022/04/15 09:32:05;;;;;;;17.70;15.80;;;;;;;;;;5063904;28;20432;-81
2022/04/15 09:34:31;;;;;;;16.00;14.40;;;;;;;;;;5050730;28;20521;-81
2022/04/15 09:36:57;;;;;;;14.20;12.43;;;;;;;;;;5034202;28;20466;-82
2022/04/15 09:39:23;;;;;;;14.60;12.33;;;;;;;;;;5029049;28;20411;-81
2022/04/15 09:41:49;;;;;;;20.30;15.37;;;;;;;;;;5046536;28;20937;-81
2022/04/15 09:44:15;;;;;;;15.47;13.90;;;;;;;;;;5028132;28;20418;-81
2022/04/15 09:46:44;;;;;;;18.40;13.60;;;;;;;;;;5046967;28;20450;-82
2022/04/15 09:49:10;;;;;;;14.93;13.33;;;;;;;;;;5041183;28;20532;-82
2022/04/15 09:51:44;;;;;;;15.00;12.93;;;;;;;;;;5040309;28;20428;-82
2022/04/15 09:54:23;;;;;;;16.43;14.83;;;;;;;;;;5027483;28;20427;-82
2022/04/15 09:56:49;;;;;;;14.97;13.57;;;;;;;;;;5035608;28;20411;-81
2022/04/15 09:59:16;;;;;;;14.13;12.70;;;;;;;;;;5027352;28;20752;-82
2022/04/15 10:01:46;;;;;;;15.90;12.47;;;;;;;;;;5022848;28;20407;-80
2022/04/15 10:04:13;;;;;;;15.00;12.97;;;;;;;;;;5019238;28;20412;-81
2022/04/15 10:06:40;;;;;;;14.03;12.53;;;;;;;;;;5024234;28;20899;-81
2022/04/15 10:09:07;;;;;;;16.08;14.48;;;;;;;;;;5014554;28;20419;-81
2022/04/15 10:11:35;;;;;;;14.57;13.07;;;;;;;;;;5031461;28;20176;-81
2022/04/15 10:14:02;;;;;;;13.10;11.43;;;;;;;;;;5029133;28;20452;-80
2022/04/15 10:16:30;;;;;;;14.53;11.40;;;;;;;;;;5031636;28;20927;-81
2022/04/15 10:18:59;;;;;;;13.53;10.00;;;;;;;;;;5023366;28;20416;-80
2022/04/15 10:21:25;;;;;;;13.53;10.67;;;;;;;;;;5021067;28;20407;-81
2022/04/15 10:23:51;;;;;;;12.80;9.80;;;;;;;;;;5020283;28;20403;-80
2022/04/15 10:26:18;;;;;;;10.67;9.37;;;;;;;;;;5028235;28;20447;-82
2022/04/15 10:28:47;;;;;;;12.90;11.38;;;;;;;;;;5029075;28;20430;-80
2022/04/15 10:31:16;;;;;;;13.63;12.27;;;;;;;;;;5066721;28;20202;-80
2022/04/15 10:33:43;;;;;;;14.00;12.13;;;;;;;;;;5049016;28;20430;-81
2022/04/15 10:36:25;;;;;;;12.87;11.23;;;;;;;;;;5037059;28;20433;-79
2022/04/15 10:39:03;;;;;;;12.90;11.40;;;;;;;;;;5053649;28;20413;-79
2022/04/15 10:41:42;;;;;;;12.23;10.93;;;;;;;;;;5039178;28;20780;-79
2022/04/15 10:44:11;;;;;;;10.43;9.33;;;;;;;;;;5032502;28;20442;-78
2022/04/15 10:46:37;;;;;;;11.97;9.40;;;;;;;;;;5015065;28;20473;-80
2022/04/15 10:49:30;;;;;;;11.73;10.37;;;;;;;;;;5029565;28;20407;-80
2022/04/15 10:52:01;;;;;;;10.33;9.23;;;;;;;;;;5026882;28;20460;-82
2022/04/15 10:54:30;;;;;;;11.70;10.60;;;;;;;;;;5047857;28;20439;-81
2022/04/15 10:57:10;;;;;;;13.60;10.00;;;;;;;;;;5046788;28;20410;-80
2022/04/15 11:02:22;;;;;;;13.93;9.70;;;;;;;;;;5044237;28;20437;-81
2022/04/15 11:04:52;;;;;;;10.30;9.23;;;;;;;;;;5029598;28;20438;-81
2022/04/15 11:07:28;;;;;;;10.43;9.43;;;;;;;;;;5034319;28;20456;-82
2022/04/15 11:09:55;;;;;;;10.17;8.20;;;;;;;;;;5045158;28;20402;-82
2022/04/15 11:12:36;;;;;;;8.73;7.73;;;;;;;;;;5046127;28;20923;-81
2022/04/15 11:15:03;;;;;;;9.30;7.80;;;;;;;;;;5075421;22;20472;-83
2022/04/15 11:17:52;;;;;;;12.10;8.10;;;;;;;;;;5070038;28;20417;-85
2022/04/15 11:20:18;;;;;;;8.23;6.67;;;;;;;;;;5072693;28;20408;-84
2022/04/15 11:22:44;;;;;;;7.97;6.13;;;;;;;;;;5084444;28;20916;-84
2022/04/15 11:25:11;;;;;;;9.37;6.37;;;;;;;;;;5073890;28;20548;-84
2022/04/15 11:27:39;;;;;;;8.23;7.40;;;;;;;;;;5060538;28;20509;-84
2022/04/15 11:30:14;;;;;;;8.53;6.77;;;;;;;;;;5045380;28;20409;-82
2022/04/15 11:32:48;;;;;;;9.83;7.00;;;;;;;;;;5072703;28;20416;-83
2022/04/15 11:35:26;;;;;;;8.13;6.83;;;;;;;;;;5044605;28;20528;-84
2022/04/15 11:37:54;;;;;;;7.60;6.90;;;;;;;;;;5059503;28;20382;-84
2022/04/15 11:40:20;;;;;;;11.27;8.80;;;;;;;;;;5059507;28;20497;-84
2022/04/15 11:42:47;;;;;;;8.13;7.33;;;;;;;;;;5042210;28;20402;-85
2022/04/15 11:45:13;;;;;;;8.90;8.10;;;;;;;;;;5059855;28;20439;-84
2022/04/15 11:47:40;;;;;;;7.97;6.63;;;;;;;;;;5039936;28;20406;-85
2022/04/15 11:50:06;;;;;;;8.47;7.57;;;;;;;;;;5058618;28;20441;-85
2022/04/15 11:52:32;;;;;;;9.60;7.67;;;;;;;;;;5058787;28;20402;-85
2022/04/15 11:54:58;;;;;;;8.40;7.60;;;;;;;;;;5059913;28;20429;-84
2022/04/15 11:57:25;;;;;;;11.77;9.70;;;;;;;;;;5059933;28;20404;-85
2022/04/15 11:59:52;;;;;;;8.57;7.70;;;;;;;;;;5059749;28;20471;-84
2022/04/15 12:02:18;;;;;;;9.07;5.73;;;;;;;;;;5045563;28;20433;-84
2022/04/15 12:04:54;;;;;;;7.60;6.80;;;;;;;;;;5061429;28;20398;-84
2022/04/15 12:07:21;;;;;;;8.20;6.87;;;;;;;;;;5058359;28;20459;-84
2022/04/15 12:09:47;;;;;;;8.60;7.70;;;;;;;;;;5074466;28;20418;-85
2022/04/15 12:12:15;;;;;;;8.93;8.03;;;;;;;;;;5078172;28;20166;-86
2022/04/15 12:14:41;;;;;;;7.60;6.90;;;;;;;;;;5070877;28;20413;-85
2022/04/15 12:17:09;;;;;;;9.10;7.50;;;;;;;;;;5057071;28;20486;-86
2022/04/15 12:19:36;;;;;;;10.17;7.40;;;;;;;;;;5058052;28;20167;-85
2022/04/15 12:22:02;;;;;;;7.93;6.73;;;;;;;;;;5059024;28;20394;-87
2022/04/15 12:24:31;;;;;;;7.43;5.97;;;;;;;;;;5057453;28;20449;-85
2022/04/15 12:27:00;;;;;;;8.47;7.43;;;;;;;;;;5038842;28;20507;-86
2022/04/15 12:32:15;;;;;;;7.77;6.60;;;;;;;;;;5054983;28;20492;-86
2022/04/15 12:34:42;;;;;;;7.60;6.47;;;;;;;;;;5060996;28;20489;-86
2022/04/15 12:37:28;;;;;;;9.67;7.00;;;;;;;;;;5043144;28;20418;-87
2022/04/15 12:39:54;;;;;;;9.30;6.53;;;;;;;;;;5055730;28;20889;-87
2022/04/15 12:42:27;;;;;;;7.20;6.40;;;;;;;;;;5056717;28;20452;-84
2022/04/15 12:44:53;;;;;;;9.27;6.73;;;;;;;;;;5060889;28;20449;-87
2022/04/15 12:47:19;;;;;;;9.70;6.07;;;;;;;;;;5042772;28;20539;-87
2022/04/15 12:49:45;;;;;;;7.87;7.07;;;;;;;;;;5060291;28;20414;-87
2022/04/15 12:52:12;;;;;;;7.10;6.30;;;;;;;;;;5058439;28;20452;-85
2022/04/15 12:54:56;;;;;;;8.23;7.20;;;;;;;;;;5057495;28;20424;-84
2022/04/15 12:57:22;;;;;;;8.93;6.93;;;;;;;;;;5059080;28;20421;-86
2022/04/15 12:59:48;;;;;;;10.70;7.70;;;;;;;;;;5063828;28;20991;-84
2022/04/15 13:02:14;;;;;;;9.63;6.87;;;;;;;;;;5077272;28;20526;-84
2022/04/15 13:04:48;;;;;;;7.97;7.03;;;;;;;;;;5075240;28;20414;-82
2022/04/15 13:07:14;;;;;;;9.93;8.00;;;;;;;;;;5059611;28;20437;-84
2022/04/15 13:09:40;;;;;;;7.20;6.50;;;;;;;;;;5059466;28;20436;-85
2022/04/15 13:12:06;;;;;;;8.10;7.27;;;;;;;;;;5059205;28;20418;-87
2022/04/15 13:14:32;;;;;;;8.40;6.83;;;;;;;;;;5073411;28;20412;-85
2022/04/15 13:16:58;;;;;;;9.70;6.43;;;;;;;;;;5079226;28;20416;-86
2022/04/15 13:19:24;;;;;;;9.67;7.23;;;;;;;;;;5047140;28;20417;-86
2022/04/15 13:21:50;;;;;;;9.57;6.90;;;;;;;;;;5065564;28;20438;-86
2022/04/15 13:24:16;;;;;;;7.40;6.60;;;;;;;;;;5067022;28;20472;-84
2022/04/15 13:26:43;;;;;;;8.00;6.40;;;;;;;;;;5085362;28;20546;-86
2022/04/15 13:29:09;;;;;;;8.60;6.97;;;;;;;;;;5067502;28;20515;-83
2022/04/15 13:31:36;;;;;;;8.90;7.10;;;;;;;;;;5063596;28;20779;-86
2022/04/15 13:34:02;;;;;;;8.97;7.33;;;;;;;;;;5040625;28;20521;-87
2022/04/15 13:36:29;;;;;;;10.27;7.37;;;;;;;;;;5059817;28;20920;-87
2022/04/15 13:38:55;;;;;;;9.90;7.70;;;;;;;;;;5063256;28;20459;-85
2022/04/15 13:41:22;;;;;;;10.38;7.45;;;;;;;;;;5063013;28;20419;-84
2022/04/15 13:43:48;;;;;;;8.60;6.50;;;;;;;;;;5062100;28;20423;-87
2022/04/15 13:46:14;;;;;;;7.53;6.60;;;;;;;;;;5062104;28;20195;-84
2022/04/15 13:48:41;;;;;;;10.27;7.07;;;;;;;;;;5062598;28;20429;-84
2022/04/15 13:51:07;;;;;;;9.60;6.60;;;;;;;;;;5063538;28;20421;-86
2022/04/15 13:56:34;;;;;;;8.70;7.90;;;;;;;;;;5042142;28;20425;-84
2022/04/15 13:59:00;;;;;;;9.53;7.50;;;;;;;;;;5053451;28;20383;-82
2022/04/15 14:01:28;;;;;;;8.50;7.57;;;;;;;;;;5038751;28;20410;-85
2022/04/15 14:03:55;;;;;;;9.00;7.97;;;;;;;;;;5052515;28;20486;-86
2022/04/15 14:06:21;;;;;;;7.97;7.10;;;;;;;;;;5047322;28;20824;-85
2022/04/15 14:08:48;;;;;;;7.13;6.43;;;;;;;;;;5043957;28;20407;-85
2022/04/15 14:11:14;;;;;;;10.27;8.13;;;;;;;;;;5027245;28;20478;-85
2022/04/15 14:13:43;;;;;;;8.83;7.57;;;;;;;;;;5041864;28;20428;-86
2022/04/15 14:16:10;;;;;;;8.43;7.40;;;;;;;;;;5057459;28;20456;-87
2022/04/15 14:18:36;;;;;;;7.80;7.00;;;;;;;;;;5042741;28;20990;-85
2022/04/15 14:21:02;;;;;;;8.33;7.53;;;;;;;;;;5059780;28;20448;-85
2022/04/15 14:23:28;;;;;;;9.70;8.20;;;;;;;;;;5067949;28;20414;-86
2022/04/15 14:25:54;;;;;;;10.10;8.13;;;;;;;;;;5081447;28;20301;-85
2022/04/15 14:28:20;;;;;;;11.97;8.50;;;;;;;;;;5065732;28;20397;-86
2022/04/15 14:30:46;;;;;;;12.20;8.33;;;;;;;;;;5055495;28;20421;-86
2022/04/15 14:33:12;;;;;;;7.67;6.93;;;;;;;;;;5049389;28;20499;-86
2022/04/15 14:35:41;;;;;;;8.37;7.07;;;;;;;;;;5058303;28;20513;-86
2022/04/15 14:38:08;;;;;;;7.80;7.00;;;;;;;;;;5058789;28;20508;-86
2022/04/15 14:40:34;;;;;;;7.90;6.47;;;;;;;;;;5042049;28;20471;-86
2022/04/15 14:43:00;;;;;;;9.53;6.60;;;;;;;;;;5059166;28;20413;-86